Time;durP1;ratioP1;P1;durP2;ratioP2;P2;SDS_P1;SDS_P2;PMS_P1;PMS_P2;Temp;Humidity;BMP_temperature;BMP_pressure;BME280_temperature;BME280_humidity;BME280_pressure;Samples;Min_cycle;Max_cycle;Signal;HPM_P1;HPM_P2
2021/01/28 00:02:21;;;;;;;41.55;17.73;;;4.00;97.50;;;;;;5023542;28;20025;-68
2021/01/28 00:04:47;;;;;;;43.08;18.38;;;4.00;97.50;;;;;;5024153;28;20056;-68
2021/01/28 00:07:12;;;;;;;37.70;17.58;;;4.00;97.40;;;;;;5024190;28;20080;-68
2021/01/28 00:09:38;;;;;;;38.97;18.35;;;4.10;97.40;;;;;;5026065;28;20025;-68
2021/01/28 00:12:04;;;;;;;42.17;18.92;;;4.10;97.40;;;;;;5022109;28;20043;-69
2021/01/28 00:14:30;;;;;;;39.10;18.02;;;4.10;97.40;;;;;;5023893;28;20020;-68
2021/01/28 00:16:55;;;;;;;38.25;18.33;;;4.00;97.40;;;;;;5022032;28;20041;-67
2021/01/28 00:19:21;;;;;;;41.28;18.60;;;4.10;97.40;;;;;;5022394;28;20033;-68
2021/01/28 00:21:46;;;;;;;44.72;18.63;;;4.10;97.30;;;;;;5025020;28;20594;-68
2021/01/28 00:24:12;;;;;;;38.60;17.02;;;4.10;97.30;;;;;;5021151;28;20037;-68
2021/01/28 00:26:38;;;;;;;35.70;16.42;;;4.10;97.30;;;;;;5021747;28;20044;-68
2021/01/28 00:29:04;;;;;;;38.42;18.30;;;4.10;97.30;;;;;;5023295;28;20481;-69
2021/01/28 00:31:31;;;;;;;36.03;17.10;;;4.10;97.20;;;;;;5022413;28;20628;-68
2021/01/28 00:33:56;;;;;;;35.45;16.98;;;4.10;97.20;;;;;;5021700;28;20080;-68
2021/01/28 00:36:22;;;;;;;32.55;17.45;;;4.10;97.20;;;;;;5022172;28;20486;-67
2021/01/28 00:38:48;;;;;;;42.08;17.85;;;4.10;97.20;;;;;;5022251;28;20032;-68
2021/01/28 00:41:13;;;;;;;35.35;17.15;;;4.10;97.20;;;;;;5021011;28;20501;-68
2021/01/28 00:43:39;;;;;;;34.70;16.83;;;4.10;97.20;;;;;;5021962;28;20033;-67
2021/01/28 00:46:06;;;;;;;32.85;16.48;;;4.10;97.20;;;;;;5022251;28;20033;-68
2021/01/28 00:48:31;;;;;;;30.95;16.15;;;4.10;97.20;;;;;;5022638;28;20561;-69
2021/01/28 00:50:59;;;;;;;29.98;16.48;;;4.10;97.10;;;;;;5023503;28;20022;-68
2021/01/28 00:53:24;;;;;;;27.50;15.07;;;4.10;97.00;;;;;;5024699;28;20232;-68
2021/01/28 00:55:51;;;;;;;26.95;13.30;;;4.20;97.00;;;;;;5020762;28;20037;-69
2021/01/28 00:58:19;;;;;;;25.27;14.23;;;4.20;97.00;;;;;;5021568;28;20035;-68
2021/01/28 01:00:46;;;;;;;25.23;13.60;;;4.10;96.90;;;;;;5022392;28;20047;-68
2021/01/28 01:03:15;;;;;;;26.30;13.43;;;4.10;96.90;;;;;;5022527;28;20039;-68
2021/01/28 01:05:42;;;;;;;23.08;11.32;;;4.20;96.80;;;;;;5072969;22;20048;-66
2021/01/28 01:08:28;;;;;;;28.80;12.38;;;4.20;96.70;;;;;;5052165;28;20129;-68
2021/01/28 01:10:58;;;;;;;32.92;13.70;;;4.20;96.70;;;;;;5050312;28;20028;-66
2021/01/28 01:13:32;;;;;;;24.40;12.60;;;4.20;96.60;;;;;;5050736;28;20024;-68
2021/01/28 01:15:58;;;;;;;22.60;13.13;;;4.20;96.60;;;;;;5042065;28;20661;-68
2021/01/28 01:18:28;;;;;;;24.48;13.50;;;4.20;96.60;;;;;;5040587;28;20131;-66
2021/01/28 01:20:54;;;;;;;27.83;12.80;;;4.20;96.60;;;;;;5040153;28;20134;-66
2021/01/28 01:23:19;;;;;;;29.48;13.48;;;4.20;96.70;;;;;;5040612;28;20036;-67
2021/01/28 01:25:45;;;;;;;22.70;12.30;;;4.20;96.70;;;;;;5040802;28;20036;-67
2021/01/28 01:28:11;;;;;;;25.75;12.65;;;4.20;96.70;;;;;;5048682;28;20425;-67
2021/01/28 01:30:37;;;;;;;28.52;13.70;;;4.10;96.80;;;;;;5058554;28;20071;-67
2021/01/28 01:33:04;;;;;;;22.02;11.93;;;4.10;96.80;;;;;;5055845;28;20040;-66
2021/01/28 01:35:30;;;;;;;26.08;13.45;;;4.10;96.80;;;;;;5056307;28;20033;-68
2021/01/28 01:37:56;;;;;;;27.13;13.07;;;4.20;96.80;;;;;;5055149;28;20102;-67
2021/01/28 01:40:31;;;;;;;23.65;12.70;;;4.20;96.60;;;;;;5059401;28;20025;-67
2021/01/28 01:42:58;;;;;;;27.48;12.57;;;4.20;96.60;;;;;;5058318;28;20397;-67
2021/01/28 01:45:29;;;;;;;22.70;12.10;;;4.20;96.60;;;;;;5056520;28;20044;-67
2021/01/28 01:48:02;;;;;;;26.60;12.63;;;4.10;96.70;;;;;;5055943;28;20040;-67
2021/01/28 01:50:36;;;;;;;23.17;12.65;;;4.10;96.70;;;;;;5050064;28;20508;-67
2021/01/28 01:53:04;;;;;;;24.90;12.80;;;4.10;96.70;;;;;;5052093;28;20045;-66
2021/01/28 01:55:31;;;;;;;24.27;13.02;;;4.10;96.70;;;;;;5060308;28;20025;-66
2021/01/28 01:58:00;;;;;;;22.90;13.25;;;4.10;96.70;;;;;;5051293;28;20045;-67
2021/01/28 02:00:26;;;;;;;27.42;13.57;;;4.10;96.80;;;;;;5055981;28;20064;-66
2021/01/28 02:03:01;;;;;;;23.13;13.07;;;4.10;96.90;;;;;;5061484;28;20063;-67
2021/01/28 02:05:34;;;;;;;30.02;13.55;;;4.10;96.90;;;;;;5064497;28;20040;-66
2021/01/28 02:08:00;;;;;;;29.23;13.60;;;4.10;96.90;;;;;;5055601;28;20078;-66
2021/01/28 02:10:26;;;;;;;30.48;14.10;;;4.10;96.90;;;;;;5050198;28;20035;-66
2021/01/28 02:12:52;;;;;;;24.58;14.48;;;4.10;96.90;;;;;;5051002;28;20025;-67
2021/01/28 02:15:20;;;;;;;26.00;14.07;;;4.10;96.90;;;;;;5064026;28;20087;-67
2021/01/28 02:17:50;;;;;;;24.85;13.48;;;4.10;96.90;;;;;;5050859;28;20082;-66
2021/01/28 02:20:34;;;;;;;25.63;13.48;;;4.10;96.90;;;;;;5063823;28;20020;-67
2021/01/28 02:23:20;;;;;;;27.00;13.95;;;4.10;96.70;;;;;;5056761;28;20630;-66
2021/01/28 02:25:50;;;;;;;24.10;13.43;;;4.10;96.70;;;;;;5057286;28;20025;-67
2021/01/28 02:28:17;;;;;;;22.60;12.55;;;4.10;96.60;;;;;;5049015;28;20108;-67
2021/01/28 02:30:45;;;;;;;24.70;14.13;;;4.10;96.60;;;;;;5050108;28;20021;-67
2021/01/28 02:33:12;;;;;;;25.45;13.38;;;4.00;96.50;;;;;;5051710;28;20468;-67
2021/01/28 02:35:38;;;;;;;26.90;13.68;;;4.00;96.50;;;;;;5059771;28;20024;-67
2021/01/28 02:38:10;;;;;;;23.10;13.00;;;4.00;96.50;;;;;;5056076;28;20025;-67
2021/01/28 02:40:37;;;;;;;21.50;12.77;;;4.00;96.40;;;;;;5050633;28;20094;-67
2021/01/28 02:43:03;;;;;;;23.88;13.07;;;4.00;96.30;;;;;;5060557;28;20024;-67
2021/01/28 02:45:34;;;;;;;23.73;13.13;;;4.00;96.20;;;;;;5066777;28;20164;-67
2021/01/28 02:48:04;;;;;;;20.70;12.23;;;4.00;96.20;;;;;;5051963;28;20437;-67
2021/01/28 02:50:30;;;;;;;20.70;12.52;;;3.90;96.10;;;;;;5048952;28;20037;-67
2021/01/28 02:52:58;;;;;;;21.50;12.10;;;3.90;95.90;;;;;;5048862;28;20053;-68
2021/01/28 02:55:26;;;;;;;21.55;12.38;;;3.90;95.90;;;;;;5057374;28;20448;-67
2021/01/28 02:57:52;;;;;;;17.55;11.30;;;3.90;95.60;;;;;;5061748;28;20040;-67
2021/01/28 03:00:22;;;;;;;20.45;12.15;;;3.80;95.70;;;;;;5049490;28;20053;-67
2021/01/28 03:02:50;;;;;;;20.33;11.98;;;3.80;95.60;;;;;;5056899;28;20099;-67
2021/01/28 03:05:16;;;;;;;14.70;9.45;;;3.60;95.60;;;;;;5060606;28;20435;-67
2021/01/28 03:07:42;;;;;;;13.80;8.93;;;3.40;94.60;;;;;;5053735;28;20079;-67
2021/01/28 03:10:08;;;;;;;13.52;7.72;;;3.40;94.10;;;;;;5049328;28;20029;-66
2021/01/28 03:12:34;;;;;;;13.90;7.88;;;3.20;93.70;;;;;;5049155;28;20033;-67
2021/01/28 03:14:59;;;;;;;13.93;7.60;;;3.10;94.00;;;;;;5049850;28;20033;-66
2021/01/28 03:17:25;;;;;;;15.68;6.97;;;2.90;94.30;;;;;;5060409;28;20029;-66
2021/01/28 03:19:51;;;;;;;10.48;6.88;;;2.70;94.10;;;;;;5049636;28;20029;-66
2021/01/28 03:22:16;;;;;;;12.32;7.65;;;2.70;94.30;;;;;;5053073;28;20104;-66
2021/01/28 03:24:42;;;;;;;15.77;8.02;;;2.60;94.30;;;;;;5052403;28;20025;-66
2021/01/28 03:27:07;;;;;;;14.38;8.13;;;2.50;94.50;;;;;;5053393;28;20025;-67
2021/01/28 03:29:33;;;;;;;15.00;8.00;;;2.60;94.60;;;;;;5057205;28;20548;-67
2021/01/28 03:31:59;;;;;;;17.15;8.45;;;2.50;94.70;;;;;;5070157;28;20277;-66
2021/01/28 03:34:24;;;;;;;15.65;8.95;;;2.40;94.60;;;;;;5054626;28;20086;-67
2021/01/28 03:36:50;;;;;;;18.75;9.93;;;2.30;95.00;;;;;;5072979;28;20441;-66
2021/01/28 03:39:15;;;;;;;20.63;10.18;;;2.30;95.30;;;;;;5058134;28;20048;-67
2021/01/28 03:41:41;;;;;;;16.63;9.57;;;2.20;95.30;;;;;;5054778;28;20481;-66
2021/01/28 03:44:07;;;;;;;19.08;10.82;;;2.10;95.40;;;;;;5060937;28;20058;-67
2021/01/28 03:46:33;;;;;;;20.67;10.55;;;2.00;95.50;;;;;;5052995;28;20520;-67
2021/01/28 03:48:58;;;;;;;24.80;11.35;;;1.90;95.70;;;;;;5054013;28;20025;-66
2021/01/28 03:51:24;;;;;;;26.92;11.30;;;1.80;95.90;;;;;;5052839;28;20021;-66
2021/01/28 03:53:49;;;;;;;26.50;11.77;;;1.80;96.20;;;;;;5052794;28;20500;-67
2021/01/28 03:56:15;;;;;;;23.33;10.60;;;1.80;96.20;;;;;;5053438;28;20059;-67
2021/01/28 03:58:41;;;;;;;29.80;11.77;;;1.70;96.20;;;;;;5051541;28;20206;-67
2021/01/28 04:01:07;;;;;;;30.30;12.65;;;1.70;96.30;;;;;;5054140;28;20484;-67
2021/01/28 04:03:33;;;;;;;33.55;12.82;;;1.70;96.40;;;;;;5059524;28;20128;-67
2021/01/28 04:05:59;;;;;;;32.33;12.60;;;1.60;96.50;;;;;;5052818;28;20119;-67
2021/01/28 04:08:24;;;;;;;29.52;11.88;;;1.50;96.40;;;;;;5051532;28;20025;-68
2021/01/28 04:10:50;;;;;;;32.10;12.80;;;1.40;96.40;;;;;;5053170;28;20108;-67
2021/01/28 04:13:16;;;;;;;37.35;12.95;;;1.30;96.50;;;;;;5054339;28;20029;-67
2021/01/28 04:15:41;;;;;;;39.22;12.93;;;1.20;96.50;;;;;;5057010;28;20025;-67
2021/01/28 04:18:07;;;;;;;33.83;13.10;;;1.10;96.60;;;;;;5056384;28;20465;-68
2021/01/28 04:20:35;;;;;;;45.05;14.50;;;1.00;96.60;;;;;;5071626;28;20030;-67
2021/01/28 04:23:00;;;;;;;43.42;13.45;;;0.90;96.70;;;;;;5056773;28;20043;-66
2021/01/28 04:25:27;;;;;;;38.10;12.95;;;0.90;96.80;;;;;;5055429;28;20025;-66
2021/01/28 04:27:53;;;;;;;53.10;15.00;;;0.90;96.90;;;;;;5053247;28;20036;-67
2021/01/28 04:30:30;;;;;;;46.22;14.98;;;1.00;97.00;;;;;;5058778;28;20029;-66
2021/01/28 04:32:57;;;;;;;56.65;14.77;;;1.00;97.10;;;;;;5055876;28;20021;-67
2021/01/28 04:35:23;;;;;;;61.67;15.63;;;1.10;97.10;;;;;;5052574;28;20470;-67
2021/01/28 04:37:49;;;;;;;61.63;16.55;;;1.10;97.10;;;;;;5051587;28;20032;-67
2021/01/28 04:40:41;;;;;;;56.83;16.33;;;1.20;97.20;;;;;;5056106;28;20493;-67
2021/01/28 04:43:28;;;;;;;60.58;16.27;;;1.30;97.20;;;;;;5049856;28;20044;-66
2021/01/28 04:45:56;;;;;;;65.78;17.40;;;1.30;97.30;;;;;;5060787;28;20400;-67
2021/01/28 04:48:22;;;;;;;65.45;17.65;;;1.30;97.30;;;;;;5060212;28;20024;-66
2021/01/28 04:50:49;;;;;;;56.90;15.90;;;1.40;97.40;;;;;;5063236;28;20024;-67
2021/01/28 04:53:18;;;;;;;63.80;16.65;;;1.40;97.40;;;;;;5051201;28;20486;-67
2021/01/28 04:55:50;;;;;;;56.42;16.58;;;1.40;97.40;;;;;;5057364;28;20040;-67
2021/01/28 04:58:16;;;;;;;56.40;15.70;;;1.40;97.40;;;;;;5062193;28;20094;-66
2021/01/28 05:00:42;;;;;;;53.25;16.55;;;1.50;97.50;;;;;;5055336;28;20111;-67
2021/01/28 05:03:21;;;;;;;48.53;15.73;;;1.50;97.40;;;;;;5057905;28;20111;-67
2021/01/28 05:05:50;;;;;;;62.08;16.27;;;1.50;97.40;;;;;;5055136;28;20561;-66
2021/01/28 05:08:16;;;;;;;55.38;15.63;;;1.50;97.40;;;;;;5055553;28;20032;-68
2021/01/28 05:10:48;;;;;;;48.38;15.15;;;1.60;97.30;;;;;;5056608;28;20044;-67
2021/01/28 05:13:27;;;;;;;61.58;15.82;;;1.60;97.30;;;;;;5057582;28;20036;-66
2021/01/28 05:15:53;;;;;;;47.47;14.95;;;1.60;97.30;;;;;;5051686;28;20401;-67
2021/01/28 05:18:34;;;;;;;40.65;14.77;;;1.60;97.30;;;;;;5058220;28;20124;-67
2021/01/28 05:21:05;;;;;;;;;;;1.60;97.30;;;;;;5055251;28;20257;-66
2021/01/28 05:23:31;;;;;;;34.35;12.63;;;1.60;97.30;;;;;;5053027;28;19915;-67
2021/01/28 05:25:58;;;;;;;34.25;13.68;;;1.60;97.20;;;;;;5050394;28;20033;-67
2021/01/28 05:28:34;;;;;;;31.70;12.57;;;1.50;97.10;;;;;;5050633;28;20486;-67
2021/01/28 05:31:00;;;;;;;30.17;12.65;;;1.50;97.00;;;;;;5060541;28;20585;-67
2021/01/28 05:33:34;;;;;;;22.30;12.85;;;1.50;96.80;;;;;;5051174;28;20113;-67
2021/01/28 05:36:23;;;;;;;24.30;13.23;;;1.50;96.50;;;;;;5057596;28;20024;-67
2021/01/28 05:38:54;;;;;;;23.25;12.50;;;1.50;96.20;;;;;;5051541;28;20500;-66
2021/01/28 05:41:49;;;;;;;22.88;12.43;;;1.50;96.00;;;;;;5056634;28;20035;-68
2021/01/28 05:44:28;;;;;;;22.75;13.30;;;1.50;95.70;;;;;;5061553;28;20067;-67
2021/01/28 05:47:34;;;;;;;17.33;11.43;;;1.50;95.50;;;;;;5051693;28;20029;-68
2021/01/28 05:50:24;;;;;;;15.50;10.45;;;1.50;95.20;;;;;;4982660;28;20440;-67
2021/01/28 05:52:49;;;;;;;17.90;10.77;;;1.40;95.10;;;;;;4984348;28;20125;-67
2021/01/28 05:55:18;;;;;;;14.35;9.80;;;1.40;95.00;;;;;;5031424;28;20512;-67
2021/01/28 05:57:50;;;;;;;20.65;11.13;;;1.40;94.80;;;;;;5065645;28;20266;-67
2021/01/28 06:00:35;;;;;;;25.20;11.90;;;1.40;94.40;;;;;;5050580;28;20040;-67
2021/01/28 06:03:01;;;;;;;15.90;10.13;;;1.30;94.50;;;;;;5051070;28;20024;-67
2021/01/28 06:05:40;;;;;;;20.35;11.82;;;1.30;94.40;;;;;;5049788;28;20024;-67
2021/01/28 06:08:24;;;;;;;18.55;11.20;;;1.30;94.50;;;;;;5049294;28;20048;-68
2021/01/28 06:11:09;;;;;;;19.92;11.82;;;1.20;94.70;;;;;;5061024;28;20013;-67
2021/01/28 06:14:08;;;;;;;21.65;11.75;;;1.20;94.80;;;;;;5054374;28;20543;-68
2021/01/28 06:17:07;;;;;;;17.05;11.55;;;1.20;94.90;;;;;;5050925;28;20029;-67
2021/01/28 06:19:52;;;;;;;17.88;11.55;;;1.10;95.00;;;;;;5054571;28;20031;-67
2021/01/28 06:22:41;;;;;;;18.95;12.95;;;1.10;95.10;;;;;;5050289;28;20048;-68
2021/01/28 06:25:10;;;;;;;23.75;13.25;;;1.00;95.20;;;;;;5062689;28;20037;-67
2021/01/28 06:27:44;;;;;;;23.13;13.23;;;1.00;95.40;;;;;;5062161;28;20071;-68
2021/01/28 06:30:28;;;;;;;22.98;12.98;;;1.10;95.60;;;;;;5062206;28;20024;-67
2021/01/28 06:33:20;;;;;;;23.02;12.93;;;1.00;95.60;;;;;;5062691;28;20049;-68
2021/01/28 06:36:07;;;;;;;21.88;12.82;;;1.00;95.70;;;;;;5053153;28;20044;-67
2021/01/28 06:38:57;;;;;;;18.85;12.57;;;1.00;95.70;;;;;;5054108;28;20085;-68
2021/01/28 06:41:29;;;;;;;18.23;12.32;;;0.90;95.80;;;;;;5064012;28;20028;-68
2021/01/28 06:44:12;;;;;;;19.67;12.20;;;0.80;95.70;;;;;;5053588;28;20094;-68
2021/01/28 06:46:55;;;;;;;19.50;12.30;;;0.80;95.70;;;;;;5049215;28;20075;-68
2021/01/28 06:49:31;;;;;;;18.00;11.48;;;0.70;95.70;;;;;;5051491;28;20622;-68
2021/01/28 06:52:12;;;;;;;16.50;10.68;;;0.60;95.80;;;;;;5050361;28;20025;-67
2021/01/28 06:55:03;;;;;;;18.23;10.70;;;0.60;95.80;;;;;;5056734;28;20029;-69
2021/01/28 06:57:51;;;;;;;;;;;0.50;95.80;;;;;;5059774;28;20037;-67
2021/01/28 07:00:17;;;;;;;16.08;10.63;;;0.50;95.80;;;;;;5044576;28;19923;-67
2021/01/28 07:03:05;;;;;;;19.20;11.13;;;0.50;95.90;;;;;;5058077;28;20024;-67
2021/01/28 07:05:44;;;;;;;23.42;12.20;;;0.40;95.90;;;;;;5082663;23;20059;-69
2021/01/28 07:08:24;;;;;;;20.67;11.25;;;0.40;95.90;;;;;;5035342;28;21217;-66
2021/01/28 07:10:50;;;;;;;19.77;11.07;;;0.40;95.90;;;;;;5035327;28;20516;-66
2021/01/28 07:13:24;;;;;;;17.83;10.90;;;0.40;96.00;;;;;;5039439;28;20028;-66
2021/01/28 07:16:14;;;;;;;17.95;10.07;;;0.30;95.90;;;;;;5029342;28;20398;-66
2021/01/28 07:18:47;;;;;;;20.48;11.25;;;0.30;96.00;;;;;;5019156;28;20095;-65
2021/01/28 07:21:38;;;;;;;22.25;11.45;;;0.30;96.10;;;;;;5021345;28;20230;-65
2021/01/28 07:24:08;;;;;;;24.75;10.77;;;0.40;96.20;;;;;;5022001;28;20029;-65
2021/01/28 07:27:04;;;;;;;21.30;11.43;;;0.40;96.10;;;;;;5002457;28;20457;-66
2021/01/28 07:29:54;;;;;;;21.27;10.77;;;0.30;96.10;;;;;;4988957;28;20058;-66
2021/01/28 07:32:25;;;;;;;18.60;10.35;;;0.40;96.00;;;;;;5018700;28;20530;-66
2021/01/28 07:35:24;;;;;;;20.83;10.32;;;0.40;96.00;;;;;;5024501;28;20108;-66
2021/01/28 07:37:54;;;;;;;17.30;10.05;;;0.40;96.00;;;;;;5019813;28;20131;-65
2021/01/28 07:40:58;;;;;;;23.25;10.82;;;0.40;96.00;;;;;;5011920;28;20442;-64
2021/01/28 07:43:38;;;;;;;18.30;10.68;;;0.30;95.90;;;;;;5021140;28;20034;-67
2021/01/28 07:46:14;;;;;;;20.85;10.75;;;0.20;95.90;;;;;;5005144;28;20098;-66
2021/01/28 07:48:41;;;;;;;22.10;11.65;;;0.10;95.90;;;;;;5019692;28;20075;-65
2021/01/28 07:51:27;;;;;;;21.00;10.98;;;0.10;96.00;;;;;;5010727;28;20025;-65
2021/01/28 07:53:53;;;;;;;26.80;11.85;;;0.10;96.00;;;;;;5018314;28;20125;-66
2021/01/28 07:56:42;;;;;;;29.92;12.70;;;0.10;96.10;;;;;;5016541;28;20348;-66
2021/01/28 07:59:31;;;;;;;29.55;11.98;;;0.10;96.20;;;;;;5013101;28;20025;-64
2021/01/28 08:02:09;;;;;;;23.40;11.73;;;0.10;96.20;;;;;;5001708;28;20427;-66
2021/01/28 08:04:53;;;;;;;25.92;12.00;;;0.10;96.20;;;;;;5020985;28;20072;-66
2021/01/28 08:07:25;;;;;;;27.20;12.27;;;0.10;96.30;;;;;;5004549;28;20127;-65
2021/01/28 08:09:57;;;;;;;32.05;13.80;;;0.10;96.40;;;;;;5025818;28;20119;-65
2021/01/28 08:12:27;;;;;;;31.13;13.60;;;0.10;96.40;;;;;;5027019;28;20025;-66
2021/01/28 08:14:53;;;;;;;34.75;13.57;;;0.10;96.40;;;;;;5009411;28;20362;-68
2021/01/28 08:17:25;;;;;;;30.35;13.80;;;0.20;96.40;;;;;;5015226;28;20033;-64
2021/01/28 08:20:11;;;;;;;38.65;14.93;;;0.20;96.50;;;;;;5021393;28;20454;-65
2021/01/28 08:22:52;;;;;;;36.83;14.35;;;0.20;96.50;;;;;;4994269;28;20091;-65
2021/01/28 08:25:18;;;;;;;38.50;15.48;;;0.30;96.50;;;;;;5010468;28;20042;-64
2021/01/28 08:27:44;;;;;;;32.58;14.35;;;0.40;96.50;;;;;;5010156;28;20155;-64
2021/01/28 08:30:26;;;;;;;34.15;14.57;;;0.40;96.50;;;;;;5006784;28;20171;-66
2021/01/28 08:32:58;;;;;;;34.42;14.60;;;0.50;96.40;;;;;;5010101;28;20463;-66
2021/01/28 08:35:46;;;;;;;35.30;14.15;;;0.60;96.40;;;;;;5010552;28;20025;-65
2021/01/28 08:38:15;;;;;;;36.70;14.93;;;0.80;96.40;;;;;;5011239;28;20033;-65
2021/01/28 08:40:43;;;;;;;34.28;14.73;;;0.80;96.30;;;;;;5005525;28;20030;-65
2021/01/28 08:43:13;;;;;;;27.15;13.52;;;0.90;96.20;;;;;;5009861;28;20624;-66
2021/01/28 08:45:38;;;;;;;25.90;12.80;;;1.00;96.10;;;;;;5007247;28;20069;-66
2021/01/28 08:48:10;;;;;;;24.90;12.07;;;1.10;96.00;;;;;;5012060;28;20589;-66
2021/01/28 08:50:37;;;;;;;23.83;12.07;;;1.00;95.60;;;;;;5008868;28;20085;-65
2021/01/28 08:53:14;;;;;;;19.85;11.00;;;1.10;95.40;;;;;;5004632;28;20060;-66
2021/01/28 08:55:40;;;;;;;18.70;11.85;;;1.10;95.10;;;;;;5008460;28;20035;-67
2021/01/28 08:58:31;;;;;;;22.17;11.95;;;1.20;95.00;;;;;;5010562;28;20270;-66
2021/01/28 09:01:01;;;;;;;22.08;11.82;;;1.20;94.80;;;;;;5008516;28;20608;-65
2021/01/28 09:03:51;;;;;;;19.05;11.10;;;1.20;94.80;;;;;;5011433;28;20037;-66
2021/01/28 09:06:16;;;;;;;20.90;11.40;;;1.20;94.60;;;;;;5010905;28;20046;-66
2021/01/28 09:08:43;;;;;;;18.90;11.75;;;1.30;94.60;;;;;;5006850;28;20091;-66
2021/01/28 09:11:11;;;;;;;19.00;10.63;;;1.20;94.10;;;;;;5007816;28;20734;-66
2021/01/28 09:13:37;;;;;;;18.25;10.85;;;1.40;94.20;;;;;;5006511;28;20045;-66
2021/01/28 09:16:18;;;;;;;23.40;11.55;;;1.50;94.00;;;;;;5009118;28;20057;-66
2021/01/28 09:18:46;;;;;;;16.27;9.77;;;1.60;94.20;;;;;;5009722;28;20030;-66
2021/01/28 09:21:17;;;;;;;18.48;9.80;;;1.60;94.00;;;;;;5004564;28;21012;-66
2021/01/28 09:24:04;;;;;;;17.02;10.02;;;1.60;93.80;;;;;;5012244;28;20695;-66
2021/01/28 09:26:34;;;;;;;15.40;9.35;;;1.60;93.80;;;;;;5006086;28;20517;-66
2021/01/28 09:29:20;;;;;;;15.40;9.13;;;1.60;93.80;;;;;;5007874;28;20160;-64
2021/01/28 09:31:48;;;;;;;17.83;8.82;;;1.60;93.70;;;;;;5008807;28;20492;-66
2021/01/28 09:34:29;;;;;;;15.93;9.55;;;1.60;93.50;;;;;;5014528;28;20030;-66
2021/01/28 09:37:01;;;;;;;17.70;9.55;;;1.60;92.90;;;;;;5009148;28;20359;-66
2021/01/28 09:39:45;;;;;;;14.23;8.45;;;1.80;93.40;;;;;;5005791;28;20088;-65
2021/01/28 09:42:17;;;;;;;16.70;8.98;;;1.90;93.00;;;;;;5008220;28;20117;-66
2021/01/28 09:44:49;;;;;;;15.15;9.40;;;2.00;92.40;;;;;;5011774;28;20113;-65
2021/01/28 09:47:15;;;;;;;14.18;9.32;;;2.20;92.80;;;;;;5009873;28;20041;-65
2021/01/28 09:49:41;;;;;;;15.48;8.52;;;2.30;92.00;;;;;;5007289;28;20171;-66
2021/01/28 09:52:32;;;;;;;14.18;8.00;;;2.40;91.60;;;;;;5006355;28;20284;-65
2021/01/28 09:55:22;;;;;;;13.55;8.13;;;2.20;90.80;;;;;;5012790;28;20537;-66
2021/01/28 09:57:49;;;;;;;14.05;8.50;;;2.20;90.70;;;;;;5029290;28;20132;-66
2021/01/28 10:00:18;;;;;;;13.43;8.25;;;2.20;90.70;;;;;;5009815;28;20749;-65
2021/01/28 10:02:44;;;;;;;13.70;8.25;;;2.20;91.60;;;;;;5005129;28;20117;-67
2021/01/28 10:05:12;;;;;;;12.02;7.82;;;2.20;91.60;;;;;;5009703;28;20639;-66
2021/01/28 10:07:37;;;;;;;16.25;9.02;;;2.20;91.60;;;;;;5006282;28;20033;-65
2021/01/28 10:10:05;;;;;;;17.70;9.20;;;2.20;91.60;;;;;;5009004;28;20030;-66
2021/01/28 10:12:31;;;;;;;14.88;9.23;;;2.30;91.60;;;;;;5006699;28;20018;-66
2021/01/28 10:14:57;;;;;;;16.60;9.35;;;2.40;91.50;;;;;;5006686;28;20029;-66
2021/01/28 10:17:23;;;;;;;15.50;9.55;;;2.40;91.10;;;;;;5006780;28;20038;-66
2021/01/28 10:19:48;;;;;;;15.20;9.05;;;2.50;90.70;;;;;;5008905;28;20152;-66
2021/01/28 10:22:18;;;;;;;17.23;9.98;;;2.60;90.90;;;;;;5007764;28;20158;-66
2021/01/28 10:24:45;;;;;;;16.35;9.40;;;2.60;90.80;;;;;;5008752;28;20265;-66
2021/01/28 10:27:11;;;;;;;13.73;9.07;;;2.70;90.60;;;;;;5006841;28;20121;-65
2021/01/28 10:29:37;;;;;;;16.38;9.43;;;2.60;89.40;;;;;;5007158;28;20230;-66
2021/01/28 10:32:08;;;;;;;15.27;9.15;;;2.60;90.00;;;;;;5006025;28;20053;-64
2021/01/28 10:34:35;;;;;;;14.68;9.55;;;2.60;90.00;;;;;;5009243;28;20121;-66
2021/01/28 10:37:00;;;;;;;16.38;9.90;;;2.50;89.40;;;;;;5008888;28;20037;-66
2021/01/28 10:39:26;;;;;;;16.52;9.55;;;2.50;89.40;;;;;;5009336;28;20406;-66
2021/01/28 10:41:52;;;;;;;17.95;10.00;;;2.50;89.50;;;;;;5007127;28;20045;-66
2021/01/28 10:44:18;;;;;;;16.20;9.55;;;2.50;89.30;;;;;;5007786;28;20924;-64
2021/01/28 10:46:44;;;;;;;17.65;10.43;;;2.50;89.00;;;;;;5005329;28;20033;-66
2021/01/28 10:49:10;;;;;;;15.52;9.20;;;2.70;90.00;;;;;;5008403;28;20088;-66
2021/01/28 10:51:36;;;;;;;16.35;9.25;;;2.50;88.40;;;;;;5005169;28;20635;-64
2021/01/28 10:54:02;;;;;;;13.77;8.65;;;2.60;88.60;;;;;;5009148;28;20494;-65
2021/01/28 10:56:28;;;;;;;14.57;8.55;;;2.70;89.10;;;;;;5005761;28;20026;-64
2021/01/28 10:58:53;;;;;;;12.65;8.20;;;2.70;88.30;;;;;;5010046;28;20386;-66
2021/01/28 11:01:20;;;;;;;12.40;8.00;;;2.60;87.60;;;;;;5004799;28;20034;-66
2021/01/28 11:03:46;;;;;;;14.20;7.80;;;2.70;87.90;;;;;;5006406;28;20303;-66
2021/01/28 11:06:11;;;;;;;12.63;8.13;;;2.80;87.70;;;;;;5009174;28;20485;-65
2021/01/28 11:08:37;;;;;;;12.02;7.40;;;2.80;87.40;;;;;;5006307;28;20204;-65
2021/01/28 11:11:03;;;;;;;11.30;7.55;;;2.80;86.20;;;;;;5004693;28;20049;-65
2021/01/28 11:13:29;;;;;;;12.52;6.72;;;2.80;86.10;;;;;;5009153;28;20036;-66
2021/01/28 11:15:55;;;;;;;14.15;8.07;;;2.80;85.80;;;;;;5013106;28;20030;-66
2021/01/28 11:18:20;;;;;;;13.82;8.32;;;2.80;86.50;;;;;;5019030;28;20380;-66
2021/01/28 11:20:46;;;;;;;14.05;8.40;;;2.70;86.00;;;;;;5017824;28;20614;-67
2021/01/28 11:23:12;;;;;;;13.52;8.05;;;2.70;86.30;;;;;;5019560;28;20099;-67
2021/01/28 11:25:37;;;;;;;15.15;8.95;;;2.70;87.30;;;;;;5017301;28;20113;-67
2021/01/28 11:28:04;;;;;;;13.07;8.98;;;2.60;86.60;;;;;;5024227;28;20040;-67
2021/01/28 11:30:31;;;;;;;12.98;8.65;;;2.70;87.60;;;;;;5016295;28;20029;-67
2021/01/28 11:32:57;;;;;;;12.80;7.85;;;2.70;87.30;;;;;;5023657;28;20024;-68
2021/01/28 11:35:26;;;;;;;12.05;8.25;;;2.60;86.70;;;;;;5013372;28;20034;-66
2021/01/28 11:37:52;;;;;;;12.75;7.65;;;2.60;86.40;;;;;;5016074;28;20127;-65
2021/01/28 11:40:20;;;;;;;10.57;7.35;;;2.60;86.20;;;;;;5014551;28;20541;-67
2021/01/28 11:42:47;;;;;;;10.13;6.53;;;2.70;87.00;;;;;;5019492;28;20030;-66
2021/01/28 11:45:14;;;;;;;12.85;6.82;;;2.70;86.10;;;;;;5005952;28;20048;-67
2021/01/28 11:47:41;;;;;;;10.27;6.57;;;2.70;85.80;;;;;;5002892;28;20485;-66
2021/01/28 11:50:08;;;;;;;10.45;6.15;;;2.70;86.00;;;;;;5018529;28;20033;-67
2021/01/28 11:52:34;;;;;;;9.57;5.88;;;2.70;84.90;;;;;;5007015;28;20056;-67
2021/01/28 11:55:00;;;;;;;9.75;6.22;;;2.70;85.30;;;;;;5026318;28;20049;-67
2021/01/28 11:57:26;;;;;;;10.05;6.28;;;2.70;85.70;;;;;;5024087;28;20170;-66
2021/01/28 11:59:52;;;;;;;8.63;5.70;;;2.80;86.30;;;;;;5021585;28;20245;-66
2021/01/28 12:02:17;;;;;;;8.13;5.00;;;2.70;85.30;;;;;;5024513;28;20041;-67
2021/01/28 12:04:43;;;;;;;8.68;5.03;;;2.80;85.80;;;;;;5007041;28;20144;-67
2021/01/28 12:07:09;;;;;;;8.95;5.15;;;2.80;85.50;;;;;;5023858;28;20143;-67
2021/01/28 12:09:35;;;;;;;7.57;4.65;;;2.80;83.10;;;;;;5018252;28;20474;-67
2021/01/28 12:12:01;;;;;;;7.68;4.57;;;2.90;84.50;;;;;;5016344;28;20075;-66
2021/01/28 12:14:27;;;;;;;9.75;5.20;;;2.90;84.10;;;;;;5022621;28;20516;-67
2021/01/28 12:16:53;;;;;;;7.65;4.22;;;3.00;83.80;;;;;;5018932;28;20026;-68
2021/01/28 12:19:18;;;;;;;7.03;4.78;;;3.00;84.10;;;;;;5019800;28;20064;-67
2021/01/28 12:21:44;;;;;;;8.82;4.90;;;2.90;84.00;;;;;;5024596;28;20041;-67
2021/01/28 12:24:10;;;;;;;7.70;5.03;;;2.90;84.20;;;;;;5022133;28;20021;-67
2021/01/28 12:26:37;;;;;;;7.97;4.72;;;2.70;82.90;;;;;;5021016;28;20083;-67
2021/01/28 12:29:02;;;;;;;7.68;4.55;;;2.70;83.70;;;;;;5021943;28;20055;-67
2021/01/28 12:31:28;;;;;;;9.00;4.68;;;2.60;83.20;;;;;;5025646;28;20030;-67
2021/01/28 12:33:54;;;;;;;7.80;4.53;;;2.60;83.20;;;;;;5026362;28;20104;-67
2021/01/28 12:36:19;;;;;;;7.28;4.32;;;2.50;83.70;;;;;;5027130;28;20097;-66
2021/01/28 12:38:45;;;;;;;7.93;4.47;;;2.50;83.80;;;;;;5024059;28;20077;-66
2021/01/28 12:41:10;;;;;;;7.18;4.45;;;2.60;83.90;;;;;;5012049;28;20048;-66
2021/01/28 12:43:37;;;;;;;7.15;4.15;;;2.70;84.00;;;;;;5027378;28;20079;-66
2021/01/28 12:46:02;;;;;;;9.90;5.07;;;2.60;83.40;;;;;;5019568;28;20514;-67
2021/01/28 12:48:28;;;;;;;7.70;4.80;;;2.70;83.60;;;;;;5020703;28;20036;-67
2021/01/28 12:50:54;;;;;;;7.45;4.50;;;2.90;83.20;;;;;;5018467;28;20033;-67
2021/01/28 12:53:19;;;;;;;7.65;4.90;;;3.00;83.40;;;;;;5009956;28;20108;-67
2021/01/28 12:55:45;;;;;;;8.38;4.82;;;3.10;83.10;;;;;;5026550;28;20066;-67
2021/01/28 12:58:11;;;;;;;7.82;4.53;;;3.40;83.40;;;;;;5026431;28;20039;-67
2021/01/28 13:00:38;;;;;;;7.90;5.00;;;3.40;82.50;;;;;;5020551;28;20036;-68